Time;durP1;ratioP1;P1;durP2;ratioP2;P2;SDS_P1;SDS_P2;PMS_P1;PMS_P2;Temp;Humidity;BMP_temperature;BMP_pressure;BME280_temperature;BME280_humidity;BME280_pressure;Samples;Min_cycle;Max_cycle;Signal;HPM_P1;HPM_P2
2021/03/01 00:01:29;;;;;;;6.18;4.30;;;;;11.00;103356.00;;;;5071789;28;20413;-77
2021/03/01 00:03:56;;;;;;;6.68;5.28;;;;;10.90;103360.00;;;;5071509;28;20571;-78
2021/03/01 00:06:22;;;;;;;6.80;4.50;;;;;11.00;103349.00;;;;5072177;28;20202;-77
2021/03/01 00:08:49;;;;;;;8.27;4.43;;;;;11.00;103355.00;;;;5070232;28;20226;-77
2021/03/01 00:11:17;;;;;;;7.25;4.40;;;;;11.00;103358.00;;;;5071732;28;20248;-78
2021/03/01 00:13:43;;;;;;;7.45;4.90;;;;;11.00;103364.00;;;;5070113;28;20199;-78
2021/03/01 00:16:10;;;;;;;6.75;4.72;;;;;11.00;103358.00;;;;5071762;28;20203;-78
2021/03/01 00:18:37;;;;;;;8.45;4.32;;;;;11.10;103359.00;;;;5070279;28;20211;-78
2021/03/01 00:21:04;;;;;;;7.88;4.72;;;;;11.10;103357.00;;;;5071043;28;20202;-78
2021/03/01 00:23:30;;;;;;;7.40;4.82;;;;;11.10;103354.00;;;;5070537;28;20191;-78
2021/03/01 00:25:57;;;;;;;7.75;4.95;;;;;11.10;103363.00;;;;5071606;28;20661;-78
2021/03/01 00:28:25;;;;;;;7.13;4.93;;;;;11.10;103361.00;;;;5068882;28;20222;-77
2021/03/01 00:30:51;;;;;;;7.90;4.90;;;;;11.10;103358.00;;;;5070970;28;20249;-78
2021/03/01 00:33:18;;;;;;;7.53;5.10;;;;;11.10;103362.00;;;;5070782;28;20249;-78
2021/03/01 00:35:45;;;;;;;8.38;4.80;;;;;11.10;103372.00;;;;5070650;28;20261;-78
2021/03/01 00:38:12;;;;;;;7.63;5.18;;;;;11.20;103377.00;;;;5071061;28;20202;-78
2021/03/01 00:40:38;;;;;;;7.30;5.38;;;;;11.20;103373.00;;;;5069676;28;20199;-78
2021/03/01 00:43:05;;;;;;;8.00;5.25;;;;;11.20;103377.00;;;;5070433;28;20279;-78
2021/03/01 00:45:33;;;;;;;7.25;4.35;;;;;11.20;103379.00;;;;5071274;28;20557;-78
2021/03/01 00:48:00;;;;;;;8.60;5.55;;;;;11.20;103382.00;;;;5071053;28;20631;-78
2021/03/01 00:50:26;;;;;;;7.63;4.80;;;;;11.20;103379.00;;;;5068318;28;20556;-78
2021/03/01 00:52:53;;;;;;;7.18;4.85;;;;;11.30;103371.00;;;;5053829;28;20225;-78
2021/03/01 00:55:20;;;;;;;6.53;4.85;;;;;11.30;103372.00;;;;5070684;28;20202;-78
2021/03/01 00:57:47;;;;;;;6.85;4.47;;;;;11.30;103364.00;;;;5069743;28;20499;-78
2021/03/01 01:00:16;;;;;;;7.78;4.90;;;;;11.30;103369.00;;;;5068884;28;20214;-78
2021/03/01 01:02:44;;;;;;;7.63;4.90;;;;;11.30;103371.00;;;;5070500;28;20206;-78
2021/03/01 01:05:12;;;;;;;9.13;4.80;;;;;11.30;103367.00;;;;5069165;28;20202;-77
2021/03/01 01:07:39;;;;;;;7.25;4.90;;;;;11.30;103360.00;;;;5069189;28;20219;-78
2021/03/01 01:10:07;;;;;;;8.20;4.88;;;;;11.30;103359.00;;;;5070537;28;20199;-78
2021/03/01 01:12:34;;;;;;;7.68;4.63;;;;;11.30;103359.00;;;;5069346;28;20245;-78
2021/03/01 01:15:01;;;;;;;9.38;4.95;;;;;11.30;103358.00;;;;5070557;28;20688;-78
2021/03/01 01:17:28;;;;;;;6.70;4.32;;;;;11.30;103358.00;;;;5070170;28;20206;-77
2021/03/01 01:19:56;;;;;;;8.95;4.95;;;;;11.30;103353.00;;;;5069819;28;20222;-78
2021/03/01 01:22:22;;;;;;;8.13;5.30;;;;;11.30;103357.00;;;;5052522;28;20199;-77
2021/03/01 01:24:49;;;;;;;8.82;4.32;;;;;11.30;103358.00;;;;5049248;28;20654;-78
2021/03/01 01:27:16;;;;;;;8.02;4.57;;;;;11.30;103354.00;;;;5050709;28;20249;-77
2021/03/01 01:29:42;;;;;;;6.00;4.18;;;;;11.30;103357.00;;;;5063278;28;20199;-78
2021/03/01 01:32:09;;;;;;;8.27;4.90;;;;;11.40;103361.00;;;;5062447;28;20726;-78
2021/03/01 01:34:36;;;;;;;6.93;4.47;;;;;11.40;103360.00;;;;5069040;28;20698;-78
2021/03/01 01:37:04;;;;;;;5.25;3.53;;;;;11.30;103360.00;;;;5054040;28;20741;-78
2021/03/01 01:39:30;;;;;;;7.70;4.25;;;;;11.30;103359.00;;;;5049897;28;20191;-77
2021/03/01 01:41:57;;;;;;;6.13;3.80;;;;;11.40;103361.00;;;;5050451;28;20602;-78
2021/03/01 01:44:24;;;;;;;5.38;3.60;;;;;11.40;103356.00;;;;5066556;28;20272;-78
2021/03/01 01:46:51;;;;;;;6.13;3.65;;;;;11.40;103356.00;;;;5068922;28;20198;-78
2021/03/01 01:49:17;;;;;;;7.10;4.20;;;;;11.40;103353.00;;;;5069691;28;20227;-78
2021/03/01 01:51:44;;;;;;;7.20;3.50;;;;;11.40;103350.00;;;;5069079;28;20210;-77
2021/03/01 01:54:12;;;;;;;8.30;4.30;;;;;11.40;103350.00;;;;5069712;28;20202;-77
2021/03/01 01:56:40;;;;;;;6.50;3.63;;;;;11.40;103354.00;;;;5068397;28;20205;-77
2021/03/01 01:59:08;;;;;;;7.78;4.18;;;;;11.40;103354.00;;;;5068098;28;20231;-78
2021/03/01 02:01:35;;;;;;;7.32;4.00;;;;;11.40;103347.00;;;;5069501;28;20268;-77
2021/03/01 02:04:06;;;;;;;6.35;3.75;;;;;11.40;103353.00;;;;5069841;28;20195;-77
2021/03/01 02:06:39;;;;;;;6.80;4.38;;;;;11.30;103341.00;;;;5067975;28;20552;-77
2021/03/01 02:09:19;;;;;;;8.40;3.88;;;;;11.30;103343.00;;;;5068283;28;20223;-78
2021/03/01 02:11:57;;;;;;;6.13;3.90;;;;;11.40;103342.00;;;;5068187;28;20207;-78
2021/03/01 02:14:32;;;;;;;5.63;3.83;;;;;11.40;103340.00;;;;5068675;28;20190;-77
2021/03/01 02:16:59;;;;;;;6.75;4.15;;;;;11.40;103343.00;;;;5069599;28;20677;-78
2021/03/01 02:19:26;;;;;;;9.45;5.57;;;;;11.40;103340.00;;;;5067483;28;20219;-78
2021/03/01 02:21:54;;;;;;;8.38;4.55;;;;;11.40;103332.00;;;;5069981;28;20714;-78
2021/03/01 02:24:26;;;;;;;8.75;4.68;;;;;11.40;103339.00;;;;5069260;28;20202;-78
2021/03/01 02:26:56;;;;;;;8.05;3.35;;;;;11.30;103336.00;;;;5068471;28;20482;-77
2021/03/01 02:29:25;;;;;;;6.93;4.07;;;;;11.40;103332.00;;;;5066049;28;20226;-78
2021/03/01 02:31:55;;;;;;;7.80;3.78;;;;;11.30;103321.00;;;;5069172;28;20205;-78
2021/03/01 02:34:26;;;;;;;7.50;4.97;;;;;11.30;103320.00;;;;5067829;28;20235;-77
2021/03/01 02:36:58;;;;;;;7.00;4.00;;;;;11.30;103325.00;;;;5067857;28;20225;-77
2021/03/01 02:39:27;;;;;;;11.60;5.90;;;;;11.30;103323.00;;;;5064644;28;20203;-78
2021/03/01 02:41:57;;;;;;;7.18;4.78;;;;;11.30;103325.00;;;;5069061;28;20203;-78
2021/03/01 02:44:24;;;;;;;6.47;4.30;;;;;11.40;103322.00;;;;5069129;28;20198;-77
2021/03/01 02:46:53;;;;;;;7.75;4.97;;;;;11.40;103316.00;;;;5067673;28;20195;-77
2021/03/01 02:49:20;;;;;;;7.20;4.30;;;;;11.40;103319.00;;;;5062543;28;20316;-78
2021/03/01 02:51:50;;;;;;;10.45;5.15;;;;;11.30;103315.00;;;;5068603;28;20217;-77
2021/03/01 02:54:19;;;;;;;7.05;4.20;;;;;11.40;103309.00;;;;5069003;28;20241;-78
2021/03/01 02:56:48;;;;;;;9.05;5.43;;;;;11.40;103318.00;;;;5068170;28;20477;-78
2021/03/01 02:59:18;;;;;;;9.73;5.50;;;;;11.40;103316.00;;;;5067438;28;20260;-77
2021/03/01 03:01:45;;;;;;;10.10;5.65;;;;;11.40;103311.00;;;;5068950;28;20198;-77
2021/03/01 03:04:12;;;;;;;7.30;4.50;;;;;11.40;103313.00;;;;5067853;28;20202;-78
2021/03/01 03:06:40;;;;;;;8.65;5.25;;;;;11.40;103311.00;;;;5068014;28;20203;-78
2021/03/01 03:09:09;;;;;;;9.10;5.50;;;;;11.40;103318.00;;;;5067520;28;20222;-77
2021/03/01 03:11:39;;;;;;;7.40;4.63;;;;;11.40;103313.00;;;;5068515;28;20524;-78
2021/03/01 03:14:09;;;;;;;9.38;5.40;;;;;11.40;103315.00;;;;5067749;28;20206;-78
2021/03/01 03:16:36;;;;;;;9.93;5.47;;;;;11.40;103318.00;;;;5059515;28;20817;-77
2021/03/01 03:19:04;;;;;;;7.18;4.50;;;;;11.40;103318.00;;;;5050961;28;20223;-77
2021/03/01 03:21:31;;;;;;;9.70;5.13;;;;;11.40;103313.00;;;;5048021;28;20196;-77
2021/03/01 03:23:58;;;;;;;9.95;5.38;;;;;11.40;103300.00;;;;5047695;28;20665;-77
2021/03/01 03:26:25;;;;;;;9.82;5.65;;;;;11.40;103303.00;;;;5054613;28;20190;-78
2021/03/01 03:28:52;;;;;;;8.63;5.25;;;;;11.50;103309.00;;;;5067549;28;20222;-78
2021/03/01 03:31:19;;;;;;;8.52;5.45;;;;;11.50;103301.00;;;;5067946;28;20596;-78
2021/03/01 03:33:46;;;;;;;9.95;6.15;;;;;11.50;103297.00;;;;5052435;28;20226;-77
2021/03/01 03:36:14;;;;;;;9.15;5.00;;;;;11.50;103298.00;;;;5052537;28;20222;-77
2021/03/01 03:38:44;;;;;;;9.55;5.43;;;;;11.50;103299.00;;;;5067267;28;20206;-77
2021/03/01 03:41:13;;;;;;;9.05;4.80;;;;;11.40;103303.00;;;;5068056;28;20281;-78
2021/03/01 03:43:41;;;;;;;9.20;5.07;;;;;11.40;103298.00;;;;5067627;28;20205;-77
2021/03/01 03:46:11;;;;;;;9.93;4.93;;;;;11.40;103291.00;;;;5067772;28;20202;-78
2021/03/01 03:48:38;;;;;;;8.88;5.18;;;;;11.40;103293.00;;;;5061766;28;20284;-78
2021/03/01 03:51:09;;;;;;;10.65;5.30;;;;;11.40;103298.00;;;;5066985;28;20733;-78
2021/03/01 03:53:42;;;;;;;10.20;5.75;;;;;11.40;103297.00;;;;5067997;28;20249;-78
2021/03/01 03:56:11;;;;;;;9.13;4.90;;;;;11.40;103289.00;;;;5067529;28;20215;-77
2021/03/01 03:58:45;;;;;;;13.77;6.40;;;;;11.40;103291.00;;;;5066302;28;20208;-77
2021/03/01 04:01:15;;;;;;;10.77;6.35;;;;;11.40;103303.00;;;;5067486;28;20516;-77
2021/03/01 04:03:43;;;;;;;9.88;5.22;;;;;11.40;103297.00;;;;5067529;28;20207;-78
2021/03/01 04:06:14;;;;;;;9.98;5.28;;;;;11.40;103297.00;;;;5066288;28;20271;-78
2021/03/01 04:08:41;;;;;;;9.40;5.82;;;;;11.40;103294.00;;;;5066137;28;20645;-77
2021/03/01 04:11:09;;;;;;;9.23;5.47;;;;;11.40;103293.00;;;;5069590;28;20199;-77
2021/03/01 04:13:37;;;;;;;12.55;6.65;;;;;11.40;103293.00;;;;5069883;28;20665;-78
2021/03/01 04:16:04;;;;;;;13.82;7.38;;;;;11.40;103303.00;;;;5070563;28;20207;-78
2021/03/01 04:18:35;;;;;;;12.57;6.53;;;;;11.40;103303.00;;;;5069458;28;20210;-77
2021/03/01 04:21:04;;;;;;;10.50;6.00;;;;;11.40;103304.00;;;;5070457;28;20190;-77
2021/03/01 04:23:33;;;;;;;11.77;6.38;;;;;11.40;103301.00;;;;5070743;28;20210;-78
2021/03/01 04:26:01;;;;;;;11.25;6.32;;;;;11.40;103298.00;;;;5070417;28;20248;-78
2021/03/01 04:28:28;;;;;;;12.65;6.47;;;;;11.40;103295.00;;;;5069535;28;20223;-78
2021/03/01 04:31:00;;;;;;;11.57;6.55;;;;;11.40;103295.00;;;;5061659;28;20191;-78
2021/03/01 04:33:28;;;;;;;11.63;6.65;;;;;11.40;103291.00;;;;5050174;28;20715;-78
2021/03/01 04:35:56;;;;;;;12.55;6.95;;;;;11.40;103296.00;;;;5054447;28;20218;-77
2021/03/01 04:38:23;;;;;;;11.75;6.82;;;;;11.40;103301.00;;;;5069548;28;20198;-77
2021/03/01 04:40:51;;;;;;;15.48;8.00;;;;;11.40;103302.00;;;;5070133;28;20207;-77
2021/03/01 04:43:21;;;;;;;12.75;7.32;;;;;11.40;103298.00;;;;5070643;28;20198;-78
2021/03/01 04:45:50;;;;;;;11.65;6.65;;;;;11.40;103302.00;;;;5069484;28;20199;-77
2021/03/01 04:48:17;;;;;;;13.23;7.38;;;;;11.40;103295.00;;;;5069392;28;20276;-77
2021/03/01 04:50:47;;;;;;;14.75;7.47;;;;;11.40;103300.00;;;;5049812;28;20511;-77
2021/03/01 04:53:16;;;;;;;12.32;6.88;;;;;11.40;103295.00;;;;5050737;28;20208;-77
2021/03/01 04:55:44;;;;;;;13.55;7.00;;;;;11.40;103298.00;;;;5056850;28;20187;-77
2021/03/01 04:58:11;;;;;;;10.32;5.65;;;;;11.40;103297.00;;;;5068804;28;20248;-78
2021/03/01 05:00:38;;;;;;;10.40;5.90;;;;;11.30;103295.00;;;;5060091;28;20249;-77
2021/03/01 05:03:07;;;;;;;12.77;6.72;;;;;11.30;103298.00;;;;5051420;28;20222;-77
2021/03/01 05:05:35;;;;;;;13.68;7.95;;;;;11.30;103289.00;;;;5054611;28;20658;-77
2021/03/01 05:08:04;;;;;;;11.80;6.85;;;;;11.30;103286.00;;;;5069975;28;20703;-78
2021/03/01 05:10:33;;;;;;;11.90;7.07;;;;;11.30;103294.00;;;;5070612;28;20199;-78
2021/03/01 05:13:00;;;;;;;12.25;6.85;;;;;11.40;103285.00;;;;5070077;28;20236;-78
2021/03/01 05:15:27;;;;;;;13.82;7.10;;;;;11.40;103284.00;;;;5068496;28;20199;-78
2021/03/01 05:17:54;;;;;;;11.23;6.25;;;;;11.40;103282.00;;;;5068515;28;20199;-78
2021/03/01 05:20:21;;;;;;;14.05;7.68;;;;;11.40;103288.00;;;;5069536;28;20668;-77
2021/03/01 05:22:47;;;;;;;13.05;7.60;;;;;11.40;103289.00;;;;5068495;28;20214;-77
2021/03/01 05:25:15;;;;;;;13.38;6.65;;;;;11.40;103287.00;;;;5069709;28;20252;-77
2021/03/01 05:27:42;;;;;;;13.77;6.97;;;;;11.40;103298.00;;;;5068070;28;20187;-77
2021/03/01 05:30:11;;;;;;;13.75;7.78;;;;;11.40;103286.00;;;;5060259;28;20213;-77
2021/03/01 05:32:39;;;;;;;12.50;7.28;;;;;11.40;103282.00;;;;5068372;28;20195;-77
2021/03/01 05:35:07;;;;;;;14.90;7.82;;;;;11.40;103294.00;;;;5066108;28;20288;-77
2021/03/01 05:37:34;;;;;;;12.00;7.45;;;;;11.40;103294.00;;;;5068480;28;20194;-77
2021/03/01 05:40:01;;;;;;;12.48;6.97;;;;;11.40;103302.00;;;;5070124;28;20202;-77
2021/03/01 05:42:31;;;;;;;12.55;7.05;;;;;11.30;103296.00;;;;5068619;28;20195;-78
2021/03/01 05:44:59;;;;;;;11.73;6.10;;;;;11.30;103297.00;;;;5058294;28;20192;-78
2021/03/01 05:47:27;;;;;;;12.63;6.65;;;;;11.30;103293.00;;;;5056835;28;20586;-77
2021/03/01 05:49:58;;;;;;;11.85;7.13;;;;;11.30;103302.00;;;;5066450;28;20258;-77
2021/03/01 05:52:27;;;;;;;12.13;6.15;;;;;11.30;103294.00;;;;5068919;28;20630;-78
2021/03/01 05:54:54;;;;;;;11.98;6.43;;;;;11.30;103289.00;;;;5068600;28;20211;-78
2021/03/01 05:57:22;;;;;;;14.07;7.05;;;;;11.30;103292.00;;;;5068879;28;20199;-78
2021/03/01 05:59:50;;;;;;;11.77;5.80;;;;;11.30;103291.00;;;;5056178;28;21009;-78
2021/03/01 06:02:18;;;;;;;10.55;6.10;;;;;11.20;103293.00;;;;5064859;28;20191;-78
2021/03/01 06:04:45;;;;;;;11.60;6.20;;;;;11.20;103293.00;;;;5049188;28;20192;-78
2021/03/01 06:07:12;;;;;;;12.40;6.80;;;;;11.20;103298.00;;;;5067773;28;20191;-77
2021/03/01 06:09:40;;;;;;;10.55;5.93;;;;;11.20;103296.00;;;;5068593;28;20238;-78
2021/03/01 06:12:07;;;;;;;11.77;6.50;;;;;11.10;103288.00;;;;5065427;28;20222;-78
2021/03/01 06:14:34;;;;;;;15.50;6.38;;;;;11.10;103293.00;;;;5062822;28;20203;-77
2021/03/01 06:17:15;;;;;;;12.57;6.75;;;;;11.00;103286.00;;;;5059395;28;20199;-78
2021/03/01 06:19:54;;;;;;;13.13;6.97;;;;;11.00;103287.00;;;;5048256;28;20219;-77
2021/03/01 06:22:23;;;;;;;10.20;5.97;;;;;11.00;103289.00;;;;5053325;28;20562;-78
2021/03/01 06:25:07;;;;;;;15.52;6.72;;;;;10.90;103297.00;;;;5068028;28;20514;-78
2021/03/01 06:27:46;;;;;;;11.82;6.30;;;;;10.90;103298.00;;;;5067327;28;20206;-78
2021/03/01 06:30:14;;;;;;;12.98;5.68;;;;;11.00;103298.00;;;;5067580;28;20194;-78
2021/03/01 06:32:41;;;;;;;10.40;6.00;;;;;11.00;103290.00;;;;5067588;28;20618;-78
2021/03/01 06:35:28;;;;;;;13.05;7.03;;;;;10.90;103288.00;;;;5067751;28;20234;-77
2021/03/01 06:38:20;;;;;;;10.65;5.90;;;;;10.90;103295.00;;;;5064682;28;20218;-76
2021/03/01 06:41:06;;;;;;;12.93;7.40;;;;;10.90;103294.00;;;;5066324;28;20207;-76
2021/03/01 06:43:33;;;;;;;10.75;6.70;;;;;11.00;103290.00;;;;5050218;28;20577;-76
2021/03/01 06:46:15;;;;;;;12.20;6.22;;;;;10.90;103297.00;;;;5048545;28;20206;-76
2021/03/01 06:48:42;;;;;;;12.77;6.70;;;;;11.00;103296.00;;;;5061597;28;20352;-76
2021/03/01 06:51:10;;;;;;;11.65;6.80;;;;;11.00;103299.00;;;;5065700;28;20191;-77
2021/03/01 06:53:38;;;;;;;14.20;6.78;;;;;11.00;103301.00;;;;5068300;28;20206;-76
2021/03/01 06:56:08;;;;;;;13.38;6.90;;;;;11.00;103295.00;;;;5067578;28;20747;-74
2021/03/01 06:58:36;;;;;;;14.52;7.50;;;;;11.00;103300.00;;;;5065926;28;20626;-76
2021/03/01 07:01:11;;;;;;;13.68;7.63;;;;;11.00;103304.00;;;;5067128;28;20289;-77
2021/03/01 07:03:40;;;;;;;13.20;7.75;;;;;11.00;103305.00;;;;5067862;28;20198;-76
2021/03/01 07:06:08;;;;;;;12.75;6.97;;;;;11.00;103311.00;;;;5067332;28;20195;-76
2021/03/01 07:08:44;;;;;;;13.23;7.32;;;;;11.00;103302.00;;;;5067255;28;20735;-76
2021/03/01 07:11:25;;;;;;;11.73;6.75;;;;;11.00;103309.00;;;;5067560;28;20203;-76
2021/03/01 07:13:53;;;;;;;11.35;6.82;;;;;11.10;103306.00;;;;5067160;28;20207;-76
2021/03/01 07:16:21;;;;;;;14.10;7.65;;;;;11.10;103310.00;;;;5068019;28;20195;-75
2021/03/01 07:18:49;;;;;;;10.48;6.72;;;;;11.10;103312.00;;;;5066764;28;20688;-76
2021/03/01 07:21:16;;;;;;;10.88;6.03;;;;;11.10;103307.00;;;;5066460;28;20584;-76
2021/03/01 07:23:45;;;;;;;11.60;6.78;;;;;11.10;103326.00;;;;5065915;28;20657;-76
2021/03/01 07:26:14;;;;;;;13.35;7.65;;;;;11.20;103329.00;;;;5067762;28;20664;-75
2021/03/01 07:28:43;;;;;;;14.45;6.93;;;;;11.20;103325.00;;;;5065972;28;20215;-75
2021/03/01 07:31:15;;;;;;;22.58;7.28;;;;;11.20;103325.00;;;;5067946;28;20203;-75
2021/03/01 07:33:43;;;;;;;14.60;7.93;;;;;11.20;103325.00;;;;5066579;28;20201;-76
2021/03/01 07:36:11;;;;;;;12.35;6.40;;;;;11.20;103326.00;;;;5066281;28;20215;-76
2021/03/01 07:38:38;;;;;;;14.15;7.70;;;;;11.20;103322.00;;;;5067437;28;20202;-75
2021/03/01 07:41:05;;;;;;;13.00;7.18;;;;;11.20;103327.00;;;;5062163;28;20204;-75
2021/03/01 07:43:35;;;;;;;13.77;7.18;;;;;11.20;103329.00;;;;5060809;28;20199;-76
2021/03/01 07:46:03;;;;;;;12.65;7.05;;;;;11.20;103331.00;;;;5068681;28;20186;-76
2021/03/01 07:48:38;;;;;;;11.05;6.65;;;;;11.10;103333.00;;;;5066786;28;20253;-75
2021/03/01 07:51:05;;;;;;;11.70;6.18;;;;;11.20;103334.00;;;;5067736;28;20195;-75
2021/03/01 07:53:48;;;;;;;12.15;7.15;;;;;11.10;103333.00;;;;5051269;28;20572;-78
2021/03/01 07:56:52;;;;;;;10.90;6.78;;;;;11.00;103337.00;;;;5066376;28;20226;-77
2021/03/01 07:59:28;;;;;;;11.13;5.80;;;;;11.10;103339.00;;;;5059587;28;20237;-76
2021/03/01 08:02:17;;;;;;;11.82;6.30;;;;;11.00;103343.00;;;;5051810;28;20199;-76
2021/03/01 08:04:43;;;;;;;9.25;5.15;;;;;11.10;103344.00;;;;5053864;28;20203;-77
2021/03/01 08:07:11;;;;;;;9.93;5.03;;;;;11.10;103346.00;;;;5064524;28;20746;-76
2021/03/01 08:09:52;;;;;;;10.68;6.80;;;;;11.00;103343.00;;;;5061897;28;20203;-76
2021/03/01 08:12:58;;;;;;;8.73;5.28;;;;;11.00;103348.00;;;;5050950;28;20550;-76
2021/03/01 08:15:43;;;;;;;9.80;5.60;;;;;11.00;103346.00;;;;5060523;28;20218;-76
2021/03/01 08:18:12;;;;;;;12.35;6.35;;;;;11.00;103350.00;;;;5050495;28;20261;-76
2021/03/01 08:20:58;;;;;;;8.45;4.70;;;;;11.00;103349.00;;;;5050652;28;20199;-76
2021/03/01 08:23:36;;;;;;;10.48;5.70;;;;;10.90;103351.00;;;;5055918;28;20202;-76
2021/03/01 08:26:04;;;;;;;10.05;5.43;;;;;11.00;103348.00;;;;5051186;28;20202;-75
2021/03/01 08:28:54;;;;;;;9.65;5.38;;;;;10.90;103353.00;;;;5053672;28;20671;-76
2021/03/01 08:31:39;;;;;;;8.52;5.28;;;;;10.90;103344.00;;;;5066288;28;20202;-75
2021/03/01 08:34:43;;;;;;;9.10;5.28;;;;;10.90;103359.00;;;;5063250;28;20892;-75
2021/03/01 08:37:09;;;;;;;10.98;5.07;;;;;10.90;103351.00;;;;5050899;28;20211;-76
2021/03/01 08:39:59;;;;;;;10.63;5.38;;;;;10.80;103348.00;;;;5059122;28;20250;-76
2021/03/01 08:42:55;;;;;;;9.45;5.05;;;;;10.80;103347.00;;;;5064639;28;20202;-76
2021/03/01 08:45:28;;;;;;;9.20;5.30;;;;;10.90;103358.00;;;;5069459;28;20198;-76
2021/03/01 08:47:56;;;;;;;12.38;6.72;;;;;10.90;103345.00;;;;5050521;28;20196;-76
2021/03/01 08:50:26;;;;;;;10.35;5.50;;;;;10.90;103340.00;;;;5054693;28;20211;-75
2021/03/01 08:52:53;;;;;;;10.82;5.50;;;;;10.90;103343.00;;;;5057955;28;20264;-75
2021/03/01 08:55:21;;;;;;;10.02;6.03;;;;;10.90;103343.00;;;;5061979;28;20206;-75
2021/03/01 08:58:02;;;;;;;9.70;5.57;;;;;10.90;103345.00;;;;5049700;28;20199;-76
2021/03/01 09:00:32;;;;;;;9.68;5.68;;;;;11.00;103336.00;;;;5065176;28;20199;-75
2021/03/01 09:03:16;;;;;;;11.10;5.78;;;;;10.90;103333.00;;;;5065167;28;20196;-75
2021/03/01 09:05:45;;;;;;;11.00;5.68;;;;;11.10;103335.00;;;;5061552;28;20214;-75
2021/03/01 09:08:13;;;;;;;10.23;5.13;;;;;11.10;103347.00;;;;5062478;28;20214;-76
2021/03/01 09:10:42;;;;;;;10.80;5.55;;;;;11.10;103340.00;;;;5060890;28;20190;-76
2021/03/01 09:13:10;;;;;;;9.20;5.32;;;;;11.20;103343.00;;;;5063844;28;20199;-76
2021/03/01 09:15:38;;;;;;;12.13;5.88;;;;;11.20;103347.00;;;;5063196;28;20204;-77
2021/03/01 09:18:08;;;;;;;9.25;4.53;;;;;11.20;103348.00;;;;5066967;28;20614;-78
2021/03/01 09:20:43;;;;;;;9.48;5.57;;;;;11.20;103338.00;;;;5064691;28;20737;-76
2021/03/01 09:23:10;;;;;;;10.50;5.75;;;;;11.30;103338.00;;;;5064290;28;20257;-75
2021/03/01 09:25:38;;;;;;;10.73;6.03;;;;;11.30;103342.00;;;;5061756;28;20661;-75
2021/03/01 09:28:07;;;;;;;12.38;6.40;;;;;11.40;103339.00;;;;5063914;28;20192;-75
2021/03/01 09:30:34;;;;;;;8.85;5.18;;;;;11.40;103344.00;;;;5057801;28;20195;-76
2021/03/01 09:33:05;;;;;;;10.05;5.55;;;;;11.40;103340.00;;;;5067592;28;20206;-75
2021/03/01 09:35:33;;;;;;;8.75;5.25;;;;;11.40;103333.00;;;;5066617;28;20222;-76
2021/03/01 09:38:01;;;;;;;7.38;4.50;;;;;11.40;103334.00;;;;5062916;28;20199;-75
2021/03/01 09:40:29;;;;;;;7.82;4.28;;;;;11.50;103332.00;;;;5062598;28;20293;-76
2021/03/01 09:43:02;;;;;;;7.30;4.82;;;;;11.50;103337.00;;;;5060605;28;20210;-76
2021/03/01 09:45:32;;;;;;;7.60;3.97;;;;;11.50;103330.00;;;;5060745;28;20222;-76
2021/03/01 09:48:01;;;;;;;5.82;4.15;;;;;11.50;103332.00;;;;5061729;28;20199;-76
2021/03/01 09:50:29;;;;;;;9.20;4.28;;;;;11.50;103335.00;;;;5063971;28;20210;-77
2021/03/01 09:52:57;;;;;;;8.43;4.13;;;;;11.60;103333.00;;;;5063526;28;20282;-77
2021/03/01 09:55:25;;;;;;;8.23;4.55;;;;;11.60;103326.00;;;;5060947;28;20205;-76
2021/03/01 09:57:52;;;;;;;9.40;5.70;;;;;11.70;103335.00;;;;5065699;28;20268;-76
2021/03/01 10:00:25;;;;;;;8.60;4.10;;;;;11.70;103328.00;;;;5062038;28;20316;-76
2021/03/01 10:02:59;;;;;;;7.47;4.65;;;;;11.70;103320.00;;;;5064688;28;20916;-76
2021/03/01 10:05:28;;;;;;;9.50;5.18;;;;;11.80;103325.00;;;;5058612;28;20211;-76
2021/03/01 10:07:57;;;;;;;6.32;3.70;;;;;11.90;103327.00;;;;5062817;28;20202;-76
2021/03/01 10:10:24;;;;;;;7.70;4.60;;;;;11.90;103323.00;;;;5065012;28;20207;-76
2021/03/01 10:12:52;;;;;;;10.10;5.00;;;;;12.00;103317.00;;;;5063490;28;20202;-76
2021/03/01 10:15:19;;;;;;;8.35;4.95;;;;;12.00;103326.00;;;;5062703;28;20290;-76
2021/03/01 10:17:45;;;;;;;8.23;4.40;;;;;12.10;103321.00;;;;5063713;28;20577;-76
2021/03/01 10:20:14;;;;;;;7.78;4.38;;;;;12.10;103328.00;;;;5062937;28;20227;-75
2021/03/01 10:23:03;;;;;;;6.93;4.20;;;;;12.00;103326.00;;;;5066205;28;20203;-75
2021/03/01 10:25:40;;;;;;;6.65;4.10;;;;;12.10;103322.00;;;;5062984;28;20201;-75
2021/03/01 10:28:27;;;;;;;8.10;4.45;;;;;12.20;103320.00;;;;5058714;28;20248;-76
2021/03/01 10:30:59;;;;;;;8.20;4.15;;;;;12.10;103328.00;;;;5053592;28;20288;-77
2021/03/01 10:33:26;;;;;;;7.53;4.05;;;;;12.20;103321.00;;;;5068029;28;20679;-77
2021/03/01 10:36:07;;;;;;;7.40;4.38;;;;;12.20;103331.00;;;;5061362;28;20226;-76
2021/03/01 10:39:15;;;;;;;9.93;4.15;;;;;12.20;103326.00;;;;5061504;28;20234;-76
2021/03/01 10:41:44;;;;;;;8.18;5.22;;;;;12.30;103330.00;;;;5062301;28;20232;-76
2021/03/01 10:44:11;;;;;;;8.13;4.47;;;;;12.30;103323.00;;;;5055212;28;20203;-76
2021/03/01 10:46:46;;;;;;;7.68;4.45;;;;;12.40;103322.00;;;;5049710;28;20199;-76
2021/03/01 10:49:24;;;;;;;7.78;4.78;;;;;12.40;103321.00;;;;5059709;28;20288;-77
2021/03/01 10:51:51;;;;;;;5.72;3.85;;;;;12.50;103328.00;;;;5064960;28;20191;-76
2021/03/01 10:54:19;;;;;;;6.93;4.18;;;;;12.60;103331.00;;;;5063429;28;20587;-76
2021/03/01 10:56:47;;;;;;;8.07;4.28;;;;;12.60;103323.00;;;;5067662;28;20207;-75
2021/03/01 10:59:13;;;;;;;5.78;3.33;;;;;12.60;103330.00;;;;5057506;28;20219;-75
2021/03/01 11:01:41;;;;;;;6.90;4.25;;;;;12.70;103327.00;;;;5047179;28;20203;-76
2021/03/01 11:04:09;;;;;;;6.80;4.60;;;;;12.70;103327.00;;;;5063922;28;20195;-77
2021/03/01 11:06:38;;;;;;;7.55;4.20;;;;;12.80;103330.00;;;;5064821;28;20195;-75
2021/03/01 11:09:06;;;;;;;5.78;3.55;;;;;12.90;103329.00;;;;5067245;28;20203;-76
2021/03/01 11:11:35;;;;;;;5.70;3.33;;;;;12.90;103328.00;;;;5056083;28;20572;-76
2021/03/01 11:14:02;;;;;;;7.90;4.22;;;;;13.00;103325.00;;;;5049530;28;20196;-78
2021/03/01 11:16:28;;;;;;;7.05;4.13;;;;;13.10;103335.00;;;;5063357;28;20187;-77
2021/03/01 11:18:55;;;;;;;6.60;3.78;;;;;13.10;103323.00;;;;5055656;28;20233;-76
2021/03/01 11:21:24;;;;;;;8.18;4.65;;;;;13.10;103326.00;;;;5060339;28;20209;-77
2021/03/01 11:23:51;;;;;;;7.75;4.70;;;;;13.20;103323.00;;;;5061096;28;20207;-77
2021/03/01 11:26:18;;;;;;;7.55;4.22;;;;;13.30;103322.00;;;;5067249;28;20199;-78
2021/03/01 11:28:45;;;;;;;6.47;4.35;;;;;13.30;103327.00;;;;5064116;28;20206;-77
2021/03/01 11:31:13;;;;;;;8.27;4.78;;;;;13.40;103320.00;;;;5065883;28;20209;-76
2021/03/01 11:33:40;;;;;;;7.18;3.90;;;;;13.40;103306.00;;;;5066689;28;20206;-77
2021/03/01 11:36:07;;;;;;;7.10;4.13;;;;;13.50;103308.00;;;;5065947;28;20250;-77
2021/03/01 11:38:34;;;;;;;9.10;4.60;;;;;13.60;103307.00;;;;5063387;28;20198;-77
2021/03/01 11:41:01;;;;;;;6.88;4.25;;;;;13.70;103306.00;;;;5061443;28;20210;-78
2021/03/01 11:43:28;;;;;;;8.50;4.97;;;;;13.80;103304.00;;;;5050155;28;20207;-76
2021/03/01 11:45:56;;;;;;;9.05;5.47;;;;;13.90;103299.00;;;;5054962;28;20200;-76
2021/03/01 11:48:22;;;;;;;9.45;4.35;;;;;14.00;103301.00;;;;5055254;28;20261;-77
2021/03/01 11:50:51;;;;;;;10.32;4.75;;;;;14.00;103295.00;;;;5056081;28;20200;-76
2021/03/01 11:53:18;;;;;;;7.38;4.40;;;;;14.10;103287.00;;;;5066585;28;20203;-77
2021/03/01 11:55:46;;;;;;;10.07;5.28;;;;;14.20;103290.00;;;;5062618;28;20199;-77
2021/03/01 11:58:13;;;;;;;10.00;4.80;;;;;14.30;103277.00;;;;5065732;28;20220;-77
2021/03/01 12:00:41;;;;;;;8.02;4.93;;;;;14.40;103275.00;;;;5063315;28;20221;-76
2021/03/01 12:03:10;;;;;;;7.28;4.50;;;;;14.50;103262.00;;;;5064356;28;20565;-77
2021/03/01 12:05:38;;;;;;;8.77;4.82;;;;;14.60;103256.00;;;;5049357;28;20742;-77
2021/03/01 12:08:06;;;;;;;6.60;4.22;;;;;14.70;103253.00;;;;5051476;28;20203;-77
2021/03/01 12:10:33;;;;;;;9.23;5.18;;;;;14.80;103255.00;;;;5058223;28;20204;-77
2021/03/01 12:13:00;;;;;;;8.95;4.43;;;;;14.80;103251.00;;;;5047884;28;20207;-76
2021/03/01 12:15:27;;;;;;;10.95;5.13;;;;;14.80;103243.00;;;;5066491;28;20265;-76
2021/03/01 12:17:54;;;;;;;9.50;5.20;;;;;14.80;103251.00;;;;5050792;28;20206;-77